Time;durP1;ratioP1;P1;durP2;ratioP2;P2;SDS_P1;SDS_P2;PMS_P1;PMS_P2;Temp;Humidity;BMP_temperature;BMP_pressure;BME280_temperature;BME280_humidity;BME280_pressure;Samples;Min_cycle;Max_cycle;Signal;HPM_P1;HPM_P2
2022/10/05 00:01:26;;;;;;;;;;;;;;;;;;10502108;28;19935;-59
2022/10/05 00:06:28;;;;;;;;;;;;;;;;;;10502487;28;19931;-59
2022/10/05 00:11:30;;;;;;;;;;;;;;;;;;10502200;28;19924;-59
2022/10/05 00:16:32;;;;;;;;;;;;;;;;;;10501325;28;20295;-59
2022/10/05 00:21:35;;;;;;;;;;;;;;;;;;10501850;28;20335;-59
2022/10/05 00:26:37;;;;;;;;;;;;;;;;;;10501661;28;19924;-59
2022/10/05 00:31:39;;;;;;;;;;;;;;;;;;10501364;28;19924;-59
2022/10/05 00:36:41;;;;;;;;;;;;;;;;;;10501257;28;19931;-59
2022/10/05 00:41:43;;;;;;;;;;;;;;;;;;10501004;28;19970;-59
2022/10/05 00:46:45;;;;;;;;;;;;;;;;;;10499930;28;19924;-59
2022/10/05 00:51:47;;;;;;;;;;;;;;;;;;10499874;28;19924;-59
2022/10/05 00:56:49;;;;;;;;;;;;;;;;;;10500444;28;20028;-59
2022/10/05 01:01:51;;;;;;;;;;;;;;;;;;10499642;28;19924;-59
2022/10/05 01:06:53;;;;;;;;;;;;;;;;;;10500039;28;19924;-59
2022/10/05 01:11:55;;;;;;;;;;;;;;;;;;10499823;28;19933;-59
2022/10/05 01:16:57;;;;;;;;;;;;;;;;;;10498900;28;20279;-59
2022/10/05 01:21:59;;;;;;;;;;;;;;;;;;10499547;28;20371;-59
2022/10/05 01:27:01;;;;;;;;;;;;;;;;;;10499457;28;19974;-59
2022/10/05 01:32:03;;;;;;;;;;;;;;;;;;10498637;28;20287;-59
2022/10/05 01:37:05;;;;;;;;;;;;;;;;;;10499203;28;19929;-59
2022/10/05 01:42:08;;;;;;;;;;;;;;;;;;10499067;28;19932;-59
2022/10/05 01:47:10;;;;;;;;;;;;;;;;;;10498386;28;20367;-59
2022/10/05 01:52:12;;;;;;;;;;;;;;;;;;10498777;28;19925;-59
2022/10/05 01:57:14;;;;;;;;;;;;;;;;;;10498500;28;19957;-59
2022/10/05 02:02:16;;;;;;;;;;;;;;;;;;10498059;28;19993;-59
2022/10/05 02:07:18;;;;;;;;;;;;;;;;;;10498358;28;19925;-59
2022/10/05 02:12:20;;;;;;;;;;;;;;;;;;10497778;28;20368;-59
2022/10/05 02:17:22;;;;;;;;;;;;;;;;;;10497589;28;20303;-59
2022/10/05 02:22:24;;;;;;;;;;;;;;;;;;10498308;28;19951;-59
2022/10/05 02:27:26;;;;;;;;;;;;;;;;;;10498157;28;19929;-59
2022/10/05 02:32:28;;;;;;;;;;;;;;;;;;10498183;28;19924;-59
2022/10/05 02:37:30;;;;;;;;;;;;;;;;;;10497936;28;19929;-59
2022/10/05 02:42:32;;;;;;;;;;;;;;;;;;10498250;28;19970;-59
2022/10/05 02:47:34;;;;;;;;;;;;;;;;;;10497776;28;19924;-59
2022/10/05 02:52:36;;;;;;;;;;;;;;;;;;10496968;28;20383;-59
2022/10/05 02:57:38;;;;;;;;;;;;;;;;;;10497604;28;19925;-59
2022/10/05 03:02:40;;;;;;;;;;;;;;;;;;10497475;28;19959;-59
2022/10/05 03:07:42;;;;;;;;;;;;;;;;;;10497061;28;19924;-59
2022/10/05 03:12:44;;;;;;;;;;;;;;;;;;10503508;28;20405;-59
2022/10/05 03:17:46;;;;;;;;;;;;;;;;;;10503638;28;19955;-59
2022/10/05 03:22:48;;;;;;;;;;;;;;;;;;10486564;28;19928;-59
2022/10/05 03:27:50;;;;;;;;;;;;;;;;;;10503438;28;20436;-59
2022/10/05 03:32:53;;;;;;;;;;;;;;;;;;10503148;28;19993;-59
2022/10/05 03:37:55;;;;;;;;;;;;;;;;;;10503645;28;19924;-60
2022/10/05 03:42:57;;;;;;;;;;;;;;;;;;10503327;28;19932;-59
2022/10/05 03:47:59;;;;;;;;;;;;;;;;;;10503347;28;19974;-59
2022/10/05 03:53:02;;;;;;;;;;;;;;;;;;10502448;28;20375;-59
2022/10/05 03:58:04;;;;;;;;;;;;;;;;;;10502955;28;19982;-59
2022/10/05 04:03:06;;;;;;;;;;;;;;;;;;10502935;28;19928;-59
2022/10/05 04:08:08;;;;;;;;;;;;;;;;;;10502627;28;19925;-59
2022/10/05 04:13:10;;;;;;;;;;;;;;;;;;10501643;28;19990;-59
2022/10/05 04:18:12;;;;;;;;;;;;;;;;;;10501534;28;19924;-59
2022/10/05 04:23:14;;;;;;;;;;;;;;;;;;10501438;28;19951;-59
2022/10/05 04:28:16;;;;;;;;;;;;;;;;;;10500954;28;19928;-59
2022/10/05 04:33:18;;;;;;;;;;;;;;;;;;10500818;28;20335;-59
2022/10/05 04:38:20;;;;;;;;;;;;;;;;;;10483467;28;19924;-59
2022/10/05 04:43:22;;;;;;;;;;;;;;;;;;10500376;28;19925;-59
2022/10/05 04:48:24;;;;;;;;;;;;;;;;;;10500723;28;19978;-59
2022/10/05 04:53:27;;;;;;;;;;;;;;;;;;10501112;28;19929;-59
2022/10/05 04:58:29;;;;;;;;;;;;;;;;;;10500316;28;19925;-59
2022/10/05 05:03:31;;;;;;;;;;;;;;;;;;10499560;28;19980;-59
2022/10/05 05:08:33;;;;;;;;;;;;;;;;;;10499315;28;19938;-59
2022/10/05 05:13:36;;;;;;;;;;;;;;;;;;10499881;28;19928;-59
2022/10/05 05:18:38;;;;;;;;;;;;;;;;;;10498928;28;19931;-59
2022/10/05 05:23:40;;;;;;;;;;;;;;;;;;10498927;28;19924;-59
2022/10/05 05:28:42;;;;;;;;;;;;;;;;;;10499385;28;19924;-59
2022/10/05 05:33:44;;;;;;;;;;;;;;;;;;10498822;28;19947;-59
2022/10/05 05:38:46;;;;;;;;;;;;;;;;;;10499173;28;19994;-59
2022/10/05 05:43:48;;;;;;;;;;;;;;;;;;10498414;28;19971;-59
2022/10/05 05:48:50;;;;;;;;;;;;;;;;;;10498853;28;19925;-59
2022/10/05 05:53:52;;;;;;;;;;;;;;;;;;10498886;28;19950;-59
2022/10/05 05:58:54;;;;;;;;;;;;;;;;;;10498786;28;19974;-60
2022/10/05 06:03:56;;;;;;;;;;;;;;;;;;10498642;28;19936;-60
2022/10/05 06:08:59;;;;;;;;;;;;;;;;;;10497849;28;19932;-60
2022/10/05 06:14:01;;;;;;;;;;;;;;;;;;10498366;28;19928;-60
2022/10/05 06:19:03;;;;;;;;;;;;;;;;;;10497649;28;19970;-60
2022/10/05 06:24:05;;;;;;;;;;;;;;;;;;10480487;28;19970;-60
2022/10/05 06:29:07;;;;;;;;;;;;;;;;;;10497361;28;19928;-60
2022/10/05 06:34:13;;;;;;;;;;;;;;;;;;10511307;22;19928;-58
2022/10/05 06:39:15;;;;;;;;;;;;;;;;;;10498598;28;19978;-58
2022/10/05 06:44:17;;;;;;;;;;;;;;;;;;10499168;28;19932;-58
2022/10/05 06:49:19;;;;;;;;;;;;;;;;;;10505465;28;19970;-58
2022/10/05 06:54:21;;;;;;;;;;;;;;;;;;10505417;28;19983;-58
2022/10/05 06:59:24;;;;;;;;;;;;;;;;;;10505184;28;19928;-58
2022/10/05 07:04:26;;;;;;;;;;;;;;;;;;10505026;28;19970;-58
2022/10/05 07:09:28;;;;;;;;;;;;;;;;;;10504771;28;19978;-58
2022/10/05 07:14:30;;;;;;;;;;;;;;;;;;10504029;28;19924;-58
2022/10/05 07:19:32;;;;;;;;;;;;;;;;;;10503703;28;19948;-58
2022/10/05 07:24:34;;;;;;;;;;;;;;;;;;10504262;28;19924;-59
2022/10/05 07:29:36;;;;;;;;;;;;;;;;;;10503355;28;19925;-58
2022/10/05 07:34:38;;;;;;;;;;;;;;;;;;10503182;28;19928;-58
2022/10/05 07:39:40;;;;;;;;;;;;;;;;;;10502989;28;19924;-59
2022/10/05 07:45:00;;;;;;;;;;;;;;;;;;10503536;28;19932;-58
2022/10/05 07:50:03;;;;;;;;;;;;;;;;;;10503125;28;19979;-58
2022/10/05 07:55:05;;;;;;;;;;;;;;;;;;10502617;28;19971;-59
2022/10/05 08:00:07;;;;;;;;;;;;;;;;;;10502234;28;19924;-59
2022/10/05 08:05:09;;;;;;;;;;;;;;;;;;10502033;28;20307;-59
2022/10/05 08:10:11;;;;;;;;;;;;;;;;;;10499607;28;19924;-59
2022/10/05 08:15:13;;;;;;;;;;;;;;;;;;10497275;28;19956;-59
2022/10/05 08:20:16;;;;;;;;;;;;;;;;;;10497815;28;20359;-59
2022/10/05 08:25:18;;;;;;;;;;;;;;;;;;10501756;28;19932;-59
2022/10/05 08:30:20;;;;;;;;;;;;;;;;;;10501510;28;19951;-59
2022/10/05 08:35:23;;;;;;;;;;;;;;;;;;10498993;28;19970;-59
2022/10/05 08:40:25;;;;;;;;;;;;;;;;;;10500593;28;19924;-59
2022/10/05 08:45:27;;;;;;;;;;;;;;;;;;10499487;28;19924;-59
2022/10/05 08:50:30;;;;;;;;;;;;;;;;;;10499477;28;19942;-59
2022/10/05 08:55:32;;;;;;;;;;;;;;;;;;10500608;28;19924;-59
2022/10/05 09:00:34;;;;;;;;;;;;;;;;;;10499527;28;19994;-59
2022/10/05 09:05:36;;;;;;;;;;;;;;;;;;10500304;28;19924;-59
2022/10/05 09:10:38;;;;;;;;;;;;;;;;;;10498937;28;19928;-59
2022/10/05 09:15:40;;;;;;;;;;;;;;;;;;10499196;28;19925;-59
2022/10/05 09:20:42;;;;;;;;;;;;;;;;;;10499604;28;19925;-59
2022/10/05 09:25:44;;;;;;;;;;;;;;;;;;10498898;28;20368;-59
2022/10/05 09:30:46;;;;;;;;;;;;;;;;;;10499007;28;20495;-58
2022/10/05 09:35:48;;;;;;;;;;;;;;;;;;10499187;28;19928;-59
2022/10/05 09:40:50;;;;;;;;;;;;;;;;;;10498496;28;19951;-59
2022/10/05 09:45:52;;;;;;;;;;;;;;;;;;10498996;28;19928;-59
2022/10/05 09:50:54;;;;;;;;;;;;;;;;;;10497942;28;19931;-59
2022/10/05 09:55:56;;;;;;;;;;;;;;;;;;10499344;28;19978;-59
2022/10/05 10:00:58;;;;;;;;;;;;;;;;;;10498707;28;19971;-59
2022/10/05 10:06:11;;;;;;;;;;;;;;;;;;10498062;28;20018;-59
2022/10/05 10:11:13;;;;;;;;;;;;;;;;;;10498332;28;19924;-59
2022/10/05 10:16:15;;;;;;;;;;;;;;;;;;10497823;28;19971;-59
2022/10/05 10:21:17;;;;;;;;;;;;;;;;;;10505473;28;19980;-59
2022/10/05 10:26:19;;;;;;;;;;;;;;;;;;10506043;28;20371;-59
2022/10/05 10:31:21;;;;;;;;;;;;;;;;;;10505505;28;20378;-59
2022/10/05 10:36:25;;;;;;;;;;;;;;;;;;10505567;28;20381;-59
2022/10/05 10:41:27;;;;;;;;;;;;;;;;;;10505341;28;20375;-59
2022/10/05 10:46:29;;;;;;;;;;;;;;;;;;10505120;28;19977;-60
2022/10/05 10:51:31;;;;;;;;;;;;;;;;;;10505368;28;19924;-59
2022/10/05 10:56:33;;;;;;;;;;;;;;;;;;10505293;28;19978;-59
2022/10/05 11:01:37;;;;;;;;;;;;;;;;;;10504519;28;20326;-60
2022/10/05 11:06:39;;;;;;;;;;;;;;;;;;10504180;28;19935;-59
2022/10/05 11:11:41;;;;;;;;;;;;;;;;;;10504016;28;20268;-59
2022/10/05 11:16:43;;;;;;;;;;;;;;;;;;10504596;28;19925;-59
2022/10/05 11:21:45;;;;;;;;;;;;;;;;;;10501711;28;19925;-59
2022/10/05 11:26:47;;;;;;;;;;;;;;;;;;10504287;28;19924;-59
2022/10/05 11:31:49;;;;;;;;;;;;;;;;;;10502183;28;20014;-60
2022/10/05 11:36:52;;;;;;;;;;;;;;;;;;10501877;28;19924;-60
2022/10/05 11:41:54;;;;;;;;;;;;;;;;;;10503661;28;19970;-59
2022/10/05 11:46:57;;;;;;;;;;;;;;;;;;10502858;28;20334;-60
2022/10/05 11:51:59;;;;;;;;;;;;;;;;;;10501488;28;20395;-60
2022/10/05 11:57:01;;;;;;;;;;;;;;;;;;10501538;28;20326;-59
2022/10/05 12:02:03;;;;;;;;;;;;;;;;;;10501806;28;19924;-60
2022/10/05 12:07:06;;;;;;;;;;;;;;;;;;10501618;28;19978;-60
2022/10/05 12:12:08;;;;;;;;;;;;;;;;;;10479284;28;19978;-60
2022/10/05 12:17:10;;;;;;;;;;;;;;;;;;10502182;28;20010;-60
2022/10/05 12:22:14;;;;;;;;;;;;;;;;;;10501377;28;19947;-62
2022/10/05 12:27:16;;;;;;;;;;;;;;;;;;10501826;28;19931;-63
2022/10/05 12:32:18;;;;;;;;;;;;;;;;;;10501117;28;19925;-63
2022/10/05 12:37:20;;;;;;;;;;;;;;;;;;10500754;28;20367;-62
2022/10/05 12:42:22;;;;;;;;;;;;;;;;;;10501237;28;19929;-63
2022/10/05 12:47:24;;;;;;;;;;;;;;;;;;10500327;28;20318;-63
2022/10/05 12:52:27;;;;;;;;;;;;;;;;;;10500496;28;19924;-63
2022/10/05 12:57:29;;;;;;;;;;;;;;;;;;10499915;28;20018;-63
2022/10/05 13:02:31;;;;;;;;;;;;;;;;;;10499723;28;20409;-63
2022/10/05 13:07:33;;;;;;;;;;;;;;;;;;10500175;28;19924;-63
2022/10/05 13:12:35;;;;;;;;;;;;;;;;;;10499312;28;20264;-66
2022/10/05 13:17:37;;;;;;;;;;;;;;;;;;10499665;28;19924;-66
2022/10/05 13:22:39;;;;;;;;;;;;;;;;;;10499617;28;19928;-66
2022/10/05 13:27:41;;;;;;;;;;;;;;;;;;10499500;28;19928;-66
2022/10/05 13:32:44;;;;;;;;;;;;;;;;;;10498507;28;20343;-66
2022/10/05 13:37:46;;;;;;;;;;;;;;;;;;10499291;28;19974;-68
2022/10/05 13:42:48;;;;;;;;;;;;;;;;;;10497657;28;20264;-67
2022/10/05 13:47:50;;;;;;;;;;;;;;;;;;10498116;28;19925;-66
2022/10/05 13:52:52;;;;;;;;;;;;;;;;;;10498347;28;19932;-66
2022/10/05 13:57:55;;;;;;;;;;;;;;;;;;10498624;28;19974;-67
2022/10/05 14:02:57;;;;;;;;;;;;;;;;;;10497674;28;19955;-67
2022/10/05 14:07:59;;;;;;;;;;;;;;;;;;10498516;28;19936;-67
2022/10/05 14:13:01;;;;;;;;;;;;;;;;;;10498367;28;19924;-67
2022/10/05 14:18:03;;;;;;;;;;;;;;;;;;10496678;28;20442;-66
2022/10/05 14:23:05;;;;;;;;;;;;;;;;;;10497545;28;19925;-66
2022/10/05 14:28:07;;;;;;;;;;;;;;;;;;10496978;28;20297;-67
2022/10/05 14:33:10;;;;;;;;;;;;;;;;;;10455961;28;19929;-66
2022/10/05 14:38:12;;;;;;;;;;;;;;;;;;10477695;28;20350;-66
2022/10/05 14:43:14;;;;;;;;;;;;;;;;;;10497116;28;19925;-65
2022/10/05 14:48:16;;;;;;;;;;;;;;;;;;10497172;28;19929;-65
2022/10/05 14:53:20;;;;;;;;;;;;;;;;;;10496485;28;19929;-65
2022/10/05 14:58:22;;;;;;;;;;;;;;;;;;10490126;28;19954;-65
2022/10/05 15:03:26;;;;;;;;;;;;;;;;;;10497200;28;19950;-65
2022/10/05 15:08:29;;;;;;;;;;;;;;;;;;10503954;28;19925;-65
2022/10/05 15:13:31;;;;;;;;;;;;;;;;;;10504673;28;19978;-62
2022/10/05 15:18:33;;;;;;;;;;;;;;;;;;10503979;28;19928;-62
2022/10/05 15:23:35;;;;;;;;;;;;;;;;;;10503745;28;20432;-61
2022/10/05 15:28:37;;;;;;;;;;;;;;;;;;10504237;28;19928;-62
2022/10/05 15:33:40;;;;;;;;;;;;;;;;;;10503348;28;19928;-62
2022/10/05 15:38:42;;;;;;;;;;;;;;;;;;10485421;28;19925;-62
2022/10/05 15:43:45;;;;;;;;;;;;;;;;;;10503620;28;19985;-62
2022/10/05 15:48:48;;;;;;;;;;;;;;;;;;10503479;28;19925;-62
2022/10/05 15:53:50;;;;;;;;;;;;;;;;;;10503250;28;19924;-62
2022/10/05 15:58:52;;;;;;;;;;;;;;;;;;10499802;28;20436;-67
2022/10/05 16:03:54;;;;;;;;;;;;;;;;;;10502552;28;19928;-63
2022/10/05 16:08:57;;;;;;;;;;;;;;;;;;10501628;28;19925;-62
2022/10/05 16:14:01;;;;;;;;;;;;;;;;;;10502308;28;19928;-62
2022/10/05 16:19:03;;;;;;;;;;;;;;;;;;10502243;28;19924;-63
2022/10/05 16:24:05;;;;;;;;;;;;;;;;;;10501997;28;19978;-63
2022/10/05 16:29:09;;;;;;;;;;;;;;;;;;10501810;28;19970;-63
2022/10/05 16:34:15;;;;;;;;;;;;;;;;;;10500631;28;19924;-63
2022/10/05 16:39:18;;;;;;;;;;;;;;;;;;10500748;28;20307;-63
2022/10/05 16:44:20;;;;;;;;;;;;;;;;;;10501170;28;19954;-62
2022/10/05 16:49:22;;;;;;;;;;;;;;;;;;10500371;28;19952;-62
2022/10/05 16:54:25;;;;;;;;;;;;;;;;;;10500688;28;19929;-63
2022/10/05 16:59:27;;;;;;;;;;;;;;;;;;10499852;28;19990;-63
2022/10/05 17:04:30;;;;;;;;;;;;;;;;;;10500389;28;19974;-63
2022/10/05 17:09:32;;;;;;;;;;;;;;;;;;10500094;28;19924;-63
2022/10/05 17:14:34;;;;;;;;;;;;;;;;;;10499362;28;20437;-63
2022/10/05 17:19:36;;;;;;;;;;;;;;;;;;10499851;28;19924;-63
2022/10/05 17:24:40;;;;;;;;;;;;;;;;;;10499642;28;19924;-62
2022/10/05 17:29:46;;;;;;;;;;;;;;;;;;10498849;28;19924;-63
2022/10/05 17:34:50;;;;;;;;;;;;;;;;;;10481001;28;19929;-65
2022/10/05 17:39:52;;;;;;;;;;;;;;;;;;10499261;28;19925;-63
2022/10/05 17:44:55;;;;;;;;;;;;;;;;;;10499240;28;19925;-63
2022/10/05 17:55:26;;;;;;;;;;;;;;;;;;10493517;28;20307;-63
2022/10/05 18:00:30;;;;;;;;;;;;;;;;;;10497887;28;19924;-63
2022/10/05 18:05:32;;;;;;;;;;;;;;;;;;10498632;28;19974;-63
2022/10/05 18:10:34;;;;;;;;;;;;;;;;;;10497685;28;19978;-63
2022/10/05 18:15:43;;;;;;;;;;;;;;;;;;10497630;28;19932;-63
2022/10/05 18:20:45;;;;;;;;;;;;;;;;;;10498406;28;19947;-63
2022/10/05 18:25:47;;;;;;;;;;;;;;;;;;10497682;28;20318;-63
2022/10/05 18:30:49;;;;;;;;;;;;;;;;;;10494885;28;19959;-63
2022/10/05 18:35:51;;;;;;;;;;;;;;;;;;10496557;28;19930;-63
2022/10/05 18:40:54;;;;;;;;;;;;;;;;;;10501909;28;20421;-63
2022/10/05 18:45:56;;;;;;;;;;;;;;;;;;10517734;22;19929;-60
2022/10/05 18:50:58;;;;;;;;;;;;;;;;;;10502720;28;19947;-60
2022/10/05 18:56:01;;;;;;;;;;;;;;;;;;10501673;28;19924;-60
2022/10/05 19:01:03;;;;;;;;;;;;;;;;;;10505422;28;19931;-60
2022/10/05 19:06:06;;;;;;;;;;;;;;;;;;10485836;28;20279;-60
2022/10/05 19:11:14;;;;;;;;;;;;;;;;;;10503352;28;19932;-60
2022/10/05 19:16:16;;;;;;;;;;;;;;;;;;10504918;28;19924;-60
2022/10/05 19:21:20;;;;;;;;;;;;;;;;;;10504568;28;20381;-60
2022/10/05 19:26:22;;;;;;;;;;;;;;;;;;10503010;28;20379;-60
2022/10/05 19:31:24;;;;;;;;;;;;;;;;;;10502282;28;19928;-59
2022/10/05 19:36:26;;;;;;;;;;;;;;;;;;10500703;28;20436;-60
2022/10/05 19:41:28;;;;;;;;;;;;;;;;;;10503898;28;19924;-60
2022/10/05 19:46:30;;;;;;;;;;;;;;;;;;10502895;28;19924;-60
2022/10/05 19:51:32;;;;;;;;;;;;;;;;;;10500892;28;19924;-60
2022/10/05 19:56:34;;;;;;;;;;;;;;;;;;10502963;28;20330;-60
2022/10/05 20:01:38;;;;;;;;;;;;;;;;;;10503152;28;19970;-60
2022/10/05 20:06:41;;;;;;;;;;;;;;;;;;10502121;28;19924;-60
2022/10/05 20:11:43;;;;;;;;;;;;;;;;;;10501708;28;19925;-60
2022/10/05 20:22:06;;;;;;;;;;;;;;;;;;10501631;28;19970;-59
2022/10/05 20:27:14;;;;;;;;;;;;;;;;;;10499517;28;19925;-60
2022/10/05 20:32:17;;;;;;;;;;;;;;;;;;10500710;28;19931;-60
2022/10/05 20:37:19;;;;;;;;;;;;;;;;;;10499935;28;20332;-60
2022/10/05 20:42:22;;;;;;;;;;;;;;;;;;10500815;28;20333;-60
2022/10/05 20:47:24;;;;;;;;;;;;;;;;;;10499345;28;19925;-60
2022/10/05 20:52:26;;;;;;;;;;;;;;;;;;10499911;28;19925;-60
2022/10/05 20:57:28;;;;;;;;;;;;;;;;;;10500185;28;20402;-60
2022/10/05 21:02:30;;;;;;;;;;;;;;;;;;10498599;28;19950;-60
2022/10/05 21:07:33;;;;;;;;;;;;;;;;;;10495686;28;19982;-60
2022/10/05 21:12:35;;;;;;;;;;;;;;;;;;10500125;28;20306;-60
2022/10/05 21:17:37;;;;;;;;;;;;;;;;;;10500009;28;19924;-60
2022/10/05 21:22:40;;;;;;;;;;;;;;;;;;10498813;28;19976;-60
2022/10/05 21:27:42;;;;;;;;;;;;;;;;;;10498277;28;19924;-59
2022/10/05 21:32:44;;;;;;;;;;;;;;;;;;10499482;28;19977;-58
2022/10/05 21:37:46;;;;;;;;;;;;;;;;;;10500242;28;19931;-58
2022/10/05 21:42:48;;;;;;;;;;;;;;;;;;10498031;28;19925;-59
2022/10/05 21:47:50;;;;;;;;;;;;;;;;;;10497442;28;19924;-59
2022/10/05 21:52:52;;;;;;;;;;;;;;;;;;10497312;28;19931;-58
2022/10/05 21:57:54;;;;;;;;;;;;;;;;;;10498006;28;19950;-58
2022/10/05 22:02:57;;;;;;;;;;;;;;;;;;10498200;28;19947;-59
2022/10/05 22:07:59;;;;;;;;;;;;;;;;;;10498108;28;19925;-59
2022/10/05 22:13:01;;;;;;;;;;;;;;;;;;10496729;28;19928;-58
2022/10/05 22:18:03;;;;;;;;;;;;;;;;;;10506499;28;20375;-59
2022/10/05 22:23:05;;;;;;;;;;;;;;;;;;10505955;28;19928;-59
2022/10/05 22:28:07;;;;;;;;;;;;;;;;;;10506036;28;20264;-59
2022/10/05 22:33:09;;;;;;;;;;;;;;;;;;10505506;28;19995;-59
2022/10/05 22:38:11;;;;;;;;;;;;;;;;;;10505762;28;19924;-59
2022/10/05 22:43:13;;;;;;;;;;;;;;;;;;10505377;28;19924;-59
2022/10/05 22:48:15;;;;;;;;;;;;;;;;;;10504232;28;20379;-59
2022/10/05 22:53:17;;;;;;;;;;;;;;;;;;10504626;28;19925;-59
2022/10/05 22:58:19;;;;;;;;;;;;;;;;;;10505336;28;19932;-59
2022/10/05 23:03:22;;;;;;;;;;;;;;;;;;10505298;28;19925;-59
2022/10/05 23:08:23;;;;;;;;;;;;;;;;;;10502943;28;20440;-59
2022/10/05 23:13:26;;;;;;;;;;;;;;;;;;10503526;28;19931;-59
2022/10/05 23:18:28;;;;;;;;;;;;;;;;;;10504015;28;19974;-59
2022/10/05 23:23:30;;;;;;;;;;;;;;;;;;10503940;28;20401;-59
2022/10/05 23:28:32;;;;;;;;;;;;;;;;;;10501301;28;19978;-59
2022/10/05 23:33:35;;;;;;;;;;;;;;;;;;10503049;28;19924;-59
2022/10/05 23:38:37;;;;;;;;;;;;;;;;;;10503463;28;19978;-59
2022/10/05 23:43:39;;;;;;;;;;;;;;;;;;10503198;28;19924;-59
2022/10/05 23:48:41;;;;;;;;;;;;;;;;;;10501663;28;20387;-58
2022/10/05 23:53:43;;;;;;;;;;;;;;;;;;10501068;28;20394;-58
2022/10/05 23:58:45;;;;;;;;;;;;;;;;;;10502476;28;19924;-59
